createdAt,value
2023-04-12T00:01:34.457Z,12.36
2023-04-12T00:04:46.599Z,12.35
2023-04-12T00:07:53.428Z,13.73
2023-04-12T00:11:00.245Z,12.86
2023-04-12T00:14:08.831Z,12.90
2023-04-12T00:17:15.893Z,12.43
2023-04-12T00:20:24.877Z,11.01
2023-04-12T00:23:31.574Z,10.61
2023-04-12T00:26:37.597Z,11.15
2023-04-12T00:29:44.298Z,11.47
2023-04-12T00:32:50.438Z,9.62
2023-04-12T00:36:00.611Z,8.62
2023-04-12T00:39:06.796Z,7.71
2023-04-12T00:42:14.282Z,7.60
2023-04-12T00:45:26.374Z,7.54
2023-04-12T00:48:35.122Z,7.71
2023-04-12T00:51:44.586Z,7.84
2023-04-12T00:54:52.154Z,7.36
2023-04-12T00:57:58.368Z,7.07
2023-04-12T01:01:05.005Z,6.73
2023-04-12T01:04:14.245Z,6.72
2023-04-12T01:07:45.308Z,6.94
2023-04-12T01:11:08.834Z,8.06
2023-04-12T01:14:31.730Z,8.03
2023-04-12T01:17:50.732Z,7.06
2023-04-12T01:21:12.513Z,7.46
2023-04-12T01:24:47.140Z,8.10
2023-04-12T01:28:03.798Z,9.73
2023-04-12T01:31:16.533Z,11.86
2023-04-12T01:34:26.274Z,13.22
2023-04-12T01:37:34.236Z,12.41
2023-04-12T01:40:42.867Z,11.24
2023-04-12T01:43:52.751Z,9.59
2023-04-12T01:46:59.735Z,10.34
2023-04-12T01:50:24.633Z,9.68
2023-04-12T01:53:46.466Z,11.86
2023-04-12T01:57:08.541Z,11.22
2023-04-12T02:00:25.021Z,9.77
2023-04-12T02:03:34.361Z,9.43
2023-04-12T02:06:44.717Z,9.77
2023-04-12T02:09:54.098Z,9.84
2023-04-12T02:13:09.485Z,10.27
2023-04-12T02:16:20.885Z,9.82
2023-04-12T02:19:26.880Z,11.14
2023-04-12T02:22:36.432Z,10.20
2023-04-12T02:25:46.836Z,10.36
2023-04-12T02:28:55.483Z,8.74
2023-04-12T02:32:04.638Z,8.26
2023-04-12T02:35:13.069Z,9.68
2023-04-12T02:38:19.459Z,9.23
2023-04-12T02:41:27.945Z,9.47
2023-04-12T02:44:34.011Z,8.16
2023-04-12T02:47:56.202Z,9.49
2023-04-12T02:51:10.841Z,9.73
2023-04-12T02:54:19.272Z,9.36
2023-04-12T02:57:31.719Z,9.52
2023-04-12T03:00:38.637Z,9.72
2023-04-12T03:03:47.488Z,9.16
2023-04-12T03:07:17.495Z,9.05
2023-04-12T03:10:28.050Z,9.15
2023-04-12T03:13:41.559Z,9.26
2023-04-12T03:16:49.375Z,9.01
2023-04-12T03:20:08.385Z,9.56
2023-04-12T03:23:14.833Z,9.51
2023-04-12T03:26:26.862Z,8.94
2023-04-12T03:29:36.527Z,9.26
2023-04-12T03:32:45.951Z,8.72
2023-04-12T03:35:55.142Z,7.83
2023-04-12T03:39:02.326Z,10.02
2023-04-12T03:42:21.595Z,8.99
2023-04-12T03:45:33.550Z,9.43
2023-04-12T03:48:41.729Z,9.32
2023-04-12T03:51:52.735Z,9.85
2023-04-12T03:54:58.652Z,10.52
2023-04-12T03:58:08.173Z,9.33
2023-04-12T04:01:21.980Z,9.50
2023-04-12T04:04:29.636Z,9.04
2023-04-12T04:07:48.174Z,8.96
2023-04-12T04:10:55.800Z,12.19
2023-04-12T04:14:07.532Z,10.58
2023-04-12T04:17:15.035Z,10.46
2023-04-12T04:20:21.052Z,9.71
2023-04-12T04:23:39.286Z,10.23
2023-04-12T04:26:46.053Z,9.71
2023-04-12T04:30:12.667Z,9.94
2023-04-12T04:33:23.751Z,9.97
2023-04-12T04:36:33.196Z,10.13
2023-04-12T04:39:42.106Z,10.75
2023-04-12T04:42:55.083Z,12.91
2023-04-12T04:46:04.121Z,12.15
2023-04-12T04:49:10.976Z,11.48
2023-04-12T04:52:22.031Z,11.68
2023-04-12T04:55:32.298Z,13.32
2023-04-12T04:58:38.543Z,14.61
2023-04-12T05:01:47.011Z,11.50
2023-04-12T05:04:56.647Z,10.05
2023-04-12T05:08:06.700Z,10.58
2023-04-12T05:11:16.950Z,15.15
2023-04-12T05:14:24.382Z,16.62
2023-04-12T05:17:30.389Z,14.47
2023-04-12T05:20:39.390Z,14.04
2023-04-12T05:23:49.118Z,11.27
2023-04-12T05:26:59.248Z,11.75
2023-04-12T05:30:05.305Z,11.59
2023-04-12T05:33:12.135Z,11.38
2023-04-12T05:36:24.140Z,11.51
2023-04-12T05:39:31.377Z,11.24
2023-04-12T05:42:40.158Z,12.19
2023-04-12T05:45:47.479Z,12.99
2023-04-12T05:48:53.819Z,12.74
2023-04-12T05:52:00.800Z,13.54
2023-04-12T05:55:08.018Z,12.42
2023-04-12T05:58:21.404Z,11.63
2023-04-12T06:01:32.642Z,11.51
2023-04-12T06:04:50.037Z,10.80
2023-04-12T06:08:03.479Z,10.98
2023-04-12T06:11:16.529Z,10.74
2023-04-12T06:14:26.263Z,10.50
2023-04-12T06:17:33.563Z,10.46
2023-04-12T06:20:43.280Z,10.14
2023-04-12T06:23:53.389Z,10.11
2023-04-12T06:26:59.735Z,9.92
2023-04-12T06:30:12.462Z,10.41
2023-04-12T06:33:25.050Z,10.72
2023-04-12T06:36:33.475Z,10.83
2023-04-12T06:39:40.027Z,10.68
2023-04-12T06:42:46.934Z,10.59
2023-04-12T06:46:00.348Z,11.26
2023-04-12T06:49:27.521Z,11.52
2023-04-12T06:52:35.945Z,12.19
2023-04-12T06:55:44.352Z,21.38
2023-04-12T06:58:50.306Z,15.81
2023-04-12T07:02:02.465Z,12.82
2023-04-12T07:05:09.757Z,12.07
2023-04-12T07:08:16.620Z,18.48
2023-04-12T07:11:23.337Z,12.43
2023-04-12T07:14:30.279Z,11.23
2023-04-12T07:17:38.918Z,20.67
2023-04-12T07:20:45.814Z,13.89
2023-04-12T07:23:53.473Z,16.44
2023-04-12T07:27:00.265Z,16.34
2023-04-12T07:30:11.455Z,12.17
2023-04-12T07:33:21.135Z,13.28
2023-04-12T07:36:27.792Z,12.94
2023-04-12T07:39:36.494Z,11.51
2023-04-12T07:42:42.569Z,14.07
2023-04-12T07:45:49.683Z,14.42
2023-04-12T07:48:58.582Z,20.93
2023-04-12T07:52:05.711Z,22.11
2023-04-12T07:55:12.337Z,11.02
2023-04-12T07:58:20.376Z,11.41
2023-04-12T08:01:26.946Z,13.70
2023-04-12T08:04:36.373Z,10.60
2023-04-12T08:07:42.384Z,12.32
2023-04-12T08:10:49.175Z,12.87
2023-04-12T08:13:55.181Z,10.03
2023-04-12T08:17:02.057Z,9.32
2023-04-12T08:20:12.378Z,9.05
2023-04-12T08:23:19.526Z,10.24
2023-04-12T08:26:26.875Z,10.72
2023-04-12T08:29:35.167Z,10.28
2023-04-12T08:32:41.993Z,10.37
2023-04-12T08:35:53.070Z,9.69
2023-04-12T08:39:02.832Z,8.83
2023-04-12T08:42:10.345Z,9.10
2023-04-12T08:45:17.570Z,8.78
2023-04-12T08:48:26.063Z,8.45
2023-04-12T08:51:38.142Z,7.99
2023-04-12T08:54:45.031Z,8.20
2023-04-12T08:57:52.402Z,7.88
2023-04-12T09:00:59.605Z,6.88
2023-04-12T09:04:10.343Z,7.14
2023-04-12T09:07:20.213Z,7.65
2023-04-12T09:10:38.328Z,7.34
2023-04-12T09:13:45.470Z,6.26
2023-04-12T09:16:53.983Z,9.28
2023-04-12T09:20:00.858Z,9.08
2023-04-12T09:23:24.454Z,7.83
2023-04-12T09:26:37.576Z,8.31
2023-04-12T09:29:45.874Z,7.82
2023-04-12T09:32:53.849Z,6.92
2023-04-12T09:36:09.691Z,7.29
2023-04-12T09:39:19.298Z,7.11
2023-04-12T09:42:33.434Z,7.41
2023-04-12T09:45:44.886Z,6.74
2023-04-12T09:48:56.741Z,6.84
2023-04-12T09:52:04.274Z,6.20
2023-04-12T09:55:20.832Z,6.12
2023-04-12T09:58:31.740Z,6.78
2023-04-12T10:01:42.071Z,5.84
2023-04-12T10:04:52.286Z,6.34
2023-04-12T10:07:59.838Z,6.74
2023-04-12T10:11:17.494Z,8.46
2023-04-12T10:14:26.364Z,8.67
2023-04-12T10:17:33.490Z,6.64
2023-04-12T10:20:44.474Z,6.41
2023-04-12T10:23:56.718Z,6.65
2023-04-12T10:27:06.867Z,7.56
2023-04-12T10:30:28.806Z,9.46
2023-04-12T10:33:35.379Z,9.00
2023-04-12T10:36:58.878Z,7.06
2023-04-12T10:40:07.539Z,5.65
2023-04-12T10:43:35.013Z,5.91
2023-04-12T10:46:55.539Z,7.28
2023-04-12T10:50:26.838Z,6.70
2023-04-12T10:53:38.253Z,7.70
2023-04-12T10:56:49.569Z,6.95
2023-04-12T11:00:09.659Z,5.77
2023-04-12T11:03:18.569Z,6.80
2023-04-12T11:06:44.034Z,6.12
2023-04-12T11:10:20.306Z,5.87
2023-04-12T11:13:26.816Z,6.60
2023-04-12T11:16:37.105Z,7.18
2023-04-12T11:19:48.008Z,7.81
2023-04-12T11:22:58.634Z,7.79
2023-04-12T11:26:07.555Z,7.84
2023-04-12T11:29:17.142Z,8.28
2023-04-12T11:32:28.233Z,8.76
2023-04-12T11:35:35.257Z,8.76
2023-04-12T11:38:42.369Z,8.59
2023-04-12T11:41:50.893Z,9.09
2023-04-12T11:45:03.142Z,8.21
2023-04-12T11:48:27.563Z,7.91
2023-04-12T11:51:36.141Z,8.96
2023-04-12T11:54:51.593Z,8.45
2023-04-12T11:57:57.698Z,7.10
2023-04-12T12:01:07.068Z,7.07
2023-04-12T12:04:16.423Z,7.45
2023-04-12T12:07:26.005Z,7.04
2023-04-12T12:10:46.455Z,5.91
2023-04-12T12:14:02.391Z,5.65
2023-04-12T12:17:15.566Z,5.47
2023-04-12T12:20:32.306Z,6.04
2023-04-12T12:23:39.245Z,7.40
2023-04-12T12:26:46.139Z,7.16
2023-04-12T12:29:58.193Z,6.65
2023-04-12T12:33:32.043Z,6.67
2023-04-12T12:36:47.589Z,6.37
2023-04-12T12:40:14.082Z,6.77
2023-04-12T12:43:22.947Z,6.59
2023-04-12T12:46:50.945Z,6.00
2023-04-12T12:49:58.761Z,6.21
2023-04-12T12:53:11.108Z,8.13
2023-04-12T12:56:18.883Z,8.19
2023-04-12T12:59:26.196Z,6.49
2023-04-12T13:02:32.393Z,6.71
2023-04-12T13:05:39.316Z,6.13
2023-04-12T13:08:47.998Z,5.85
2023-04-12T13:11:54.742Z,6.30
2023-04-12T13:15:17.226Z,6.82
2023-04-12T13:18:27.666Z,7.88
2023-04-12T13:21:33.661Z,7.01
2023-04-12T13:24:43.623Z,7.52
2023-04-12T13:27:52.494Z,6.88
2023-04-12T13:31:01.714Z,7.67
2023-04-12T13:34:07.725Z,8.22
2023-04-12T13:37:15.565Z,7.35
2023-04-12T13:40:24.340Z,6.59
2023-04-12T13:43:31.169Z,7.09
2023-04-12T13:46:37.291Z,6.94
2023-04-12T13:49:44.914Z,9.96
2023-04-12T13:52:50.805Z,7.42
2023-04-12T13:56:00.120Z,7.24
2023-04-12T13:59:06.708Z,6.68
2023-04-12T14:02:13.573Z,6.34
2023-04-12T14:05:19.507Z,6.75
2023-04-12T14:08:27.712Z,7.08
2023-04-12T14:11:49.601Z,6.09
2023-04-12T14:14:59.367Z,5.79
2023-04-12T14:18:05.841Z,5.86
2023-04-12T14:21:13.497Z,6.81
2023-04-12T14:24:20.241Z,9.09
2023-04-12T14:27:29.728Z,8.34
2023-04-12T14:30:35.875Z,7.09
2023-04-12T14:33:42.716Z,6.98
2023-04-12T14:36:48.609Z,7.65
2023-04-12T14:39:57.226Z,7.69
2023-04-12T14:43:06.142Z,6.99
2023-04-12T14:46:14.290Z,6.88
2023-04-12T14:49:20.272Z,6.65
2023-04-12T14:52:27.880Z,6.82
2023-04-12T14:55:35.301Z,6.34
2023-04-12T14:58:44.705Z,6.74
2023-04-12T15:01:52.518Z,6.91
2023-04-12T15:05:04.499Z,6.60
2023-04-12T15:08:10.902Z,6.58
2023-04-12T15:11:19.487Z,5.81
2023-04-12T15:14:29.150Z,5.12
2023-04-12T15:17:36.898Z,5.61
2023-04-12T15:20:42.770Z,5.83
2023-04-12T15:23:52.748Z,6.54
2023-04-12T15:26:58.623Z,6.79
2023-04-12T15:30:12.490Z,6.17
2023-04-12T15:33:19.322Z,6.12
2023-04-12T15:36:33.838Z,5.80
2023-04-12T15:39:40.548Z,5.80
2023-04-12T15:42:47.572Z,5.36
2023-04-12T15:45:57.382Z,5.27
2023-04-12T15:49:04.760Z,5.74
2023-04-12T15:52:11.045Z,6.11
2023-04-12T15:55:20.681Z,5.41
2023-04-12T15:58:27.802Z,5.46
2023-04-12T16:01:38.353Z,5.61
2023-04-12T16:04:46.890Z,5.74
2023-04-12T16:07:56.468Z,5.93
2023-04-12T16:11:02.549Z,5.01
2023-04-12T16:14:09.523Z,5.06
2023-04-12T16:17:19.378Z,5.49
2023-04-12T16:20:29.390Z,5.95
2023-04-12T16:23:35.467Z,5.53
2023-04-12T16:26:42.573Z,5.15
2023-04-12T16:29:48.718Z,5.02
2023-04-12T16:32:58.568Z,5.18
2023-04-12T16:36:04.656Z,7.77
2023-04-12T16:39:11.771Z,8.93
2023-04-12T16:42:23.493Z,6.61
2023-04-12T16:45:37.632Z,5.81
2023-04-12T16:48:46.179Z,5.85
2023-04-12T16:51:54.127Z,5.91
2023-04-12T16:55:01.364Z,6.29
2023-04-12T16:58:08.244Z,6.18
2023-04-12T17:01:17.282Z,6.56
2023-04-12T17:04:27.209Z,7.76
2023-04-12T17:07:33.378Z,8.70
2023-04-12T17:10:42.433Z,9.24
2023-04-12T17:13:50.734Z,10.62
2023-04-12T17:16:57.644Z,11.13
2023-04-12T17:20:09.150Z,11.59
2023-04-12T17:23:18.428Z,11.99
2023-04-12T17:26:26.852Z,11.00
2023-04-12T17:29:33.945Z,9.92
2023-04-12T17:32:40.691Z,10.32
2023-04-12T17:35:50.587Z,10.39
2023-04-12T17:38:57.257Z,9.82
2023-04-12T17:42:04.246Z,9.44
2023-04-12T17:45:19.582Z,8.69
2023-04-12T17:48:31.661Z,9.07
2023-04-12T17:51:43.012Z,11.04
2023-04-12T17:54:52.082Z,16.02
2023-04-12T17:57:58.459Z,17.96
2023-04-12T18:01:05.380Z,17.88
2023-04-12T18:04:11.632Z,21.49
2023-04-12T18:07:21.688Z,20.60
2023-04-12T18:10:30.836Z,19.37
2023-04-12T18:13:37.687Z,17.74
2023-04-12T18:16:44.305Z,17.47
2023-04-12T18:19:51.143Z,19.51
2023-04-12T18:22:59.803Z,20.22
2023-04-12T18:26:09.307Z,21.70
2023-04-12T18:29:17.823Z,21.40
2023-04-12T18:32:24.645Z,21.56
2023-04-12T18:35:30.842Z,21.33
2023-04-12T18:38:40.605Z,22.40
2023-04-12T18:41:46.747Z,24.13
2023-04-12T18:44:54.316Z,24.00
2023-04-12T18:48:00.723Z,26.74
2023-04-12T18:51:10.703Z,27.64
2023-04-12T18:54:19.340Z,28.62
2023-04-12T18:57:26.261Z,29.31
2023-04-12T19:00:33.150Z,29.04
2023-04-12T19:03:40.190Z,29.92
2023-04-12T19:06:47.518Z,29.03
2023-04-12T19:09:57.719Z,27.83
2023-04-12T19:13:05.058Z,26.39
2023-04-12T19:16:11.983Z,26.02
2023-04-12T19:19:20.075Z,26.18
2023-04-12T19:22:28.900Z,26.43
2023-04-12T19:25:38.180Z,26.91
2023-04-12T19:28:46.236Z,26.19
2023-04-12T19:31:58.514Z,25.98
2023-04-12T19:35:07.710Z,24.54
2023-04-12T19:38:15.736Z,24.47
2023-04-12T19:41:29.045Z,24.01
2023-04-12T19:44:36.922Z,26.83
2023-04-12T19:47:45.799Z,28.38
2023-04-12T19:50:52.190Z,20.82
2023-04-12T19:53:59.698Z,19.30
2023-04-12T19:57:08.583Z,19.69
2023-04-12T20:00:20.507Z,19.94
2023-04-12T20:03:28.802Z,18.85
2023-04-12T20:06:35.859Z,18.46
2023-04-12T20:09:41.827Z,18.24
2023-04-12T20:12:53.476Z,17.05
2023-04-12T20:16:06.413Z,17.45
2023-04-12T20:19:14.046Z,17.09
2023-04-12T20:22:21.478Z,19.14
2023-04-12T20:25:35.792Z,20.05
2023-04-12T20:28:45.234Z,19.79
2023-04-12T20:31:53.865Z,21.22
2023-04-12T20:35:05.901Z,21.00
2023-04-12T20:38:22.498Z,21.78
2023-04-12T20:41:28.484Z,22.25
2023-04-12T20:44:37.916Z,22.80
2023-04-12T20:47:46.526Z,23.57
2023-04-12T20:50:53.366Z,24.70
2023-04-12T20:54:02.389Z,26.83
2023-04-12T20:57:09.810Z,26.56
2023-04-12T21:00:23.996Z,25.71
2023-04-12T21:03:31.091Z,27.08
2023-04-12T21:06:37.863Z,27.39
2023-04-12T21:09:44.734Z,26.14
2023-04-12T21:12:52.030Z,26.27
2023-04-12T21:16:08.010Z,25.70
2023-04-12T21:19:20.982Z,26.40
2023-04-12T21:22:33.954Z,26.63
2023-04-12T21:25:40.169Z,26.33
2023-04-12T21:28:47.435Z,24.86
2023-04-12T21:31:56.500Z,25.56
2023-04-12T21:35:05.852Z,25.87
2023-04-12T21:38:12.390Z,26.11
2023-04-12T21:41:20.498Z,26.08
2023-04-12T21:44:26.926Z,25.87
2023-04-12T21:47:36.489Z,26.27
2023-04-12T21:50:42.400Z,25.77
2023-04-12T21:53:49.387Z,26.09
2023-04-12T21:56:58.335Z,25.94
2023-04-12T22:00:14.015Z,25.64
2023-04-12T22:03:29.865Z,26.19
2023-04-12T22:06:36.803Z,26.67
2023-04-12T22:09:43.103Z,26.82
2023-04-12T22:12:50.848Z,26.99
2023-04-12T22:15:58.162Z,27.35
2023-04-12T22:19:07.779Z,27.76
2023-04-12T22:22:14.626Z,27.88
2023-04-12T22:25:22.978Z,28.49
2023-04-12T22:28:29.465Z,27.60
2023-04-12T22:31:36.363Z,27.82
2023-04-12T22:34:46.861Z,28.01
2023-04-12T22:37:55.112Z,28.25
2023-04-12T22:41:06.543Z,29.68
2023-04-12T22:44:13.298Z,29.93
2023-04-12T22:47:19.083Z,30.06
2023-04-12T22:50:33.327Z,30.73
2023-04-12T22:53:39.578Z,31.42
2023-04-12T22:56:48.283Z,33.43
2023-04-12T22:59:56.276Z,33.73
2023-04-12T23:03:04.553Z,34.21
2023-04-12T23:06:15.287Z,33.56
2023-04-12T23:09:22.043Z,34.22
2023-04-12T23:12:30.973Z,34.38
2023-04-12T23:15:38.174Z,34.79
2023-04-12T23:18:45.354Z,35.01
2023-04-12T23:21:54.858Z,35.29
2023-04-12T23:25:00.704Z,35.86
2023-04-12T23:28:13.368Z,36.33
2023-04-12T23:31:20.154Z,36.69
2023-04-12T23:34:26.858Z,37.44
2023-04-12T23:37:37.107Z,39.39
2023-04-12T23:40:47.892Z,39.39
2023-04-12T23:43:57.274Z,39.58
2023-04-12T23:47:04.498Z,41.24
2023-04-12T23:50:11.664Z,40.06
2023-04-12T23:53:22.393Z,40.77
2023-04-12T23:56:28.308Z,40.92
2023-04-12T23:59:35.138Z,41.30
